sensor_id;sensor_type;location;lat;lon;timestamp;P1;P2;P0
47709;PMS7003;33473;51.640;5.892;2023-05-10T00:01:56;15.73;17.12;11.02
47709;PMS7003;33473;51.640;5.892;2023-05-10T00:15:16;15.13;16.69;10.47
47709;PMS7003;33473;51.640;5.892;2023-05-10T00:28:36;14.89;16.14;10.36
47709;PMS7003;33473;51.640;5.892;2023-05-10T00:41:55;13.81;15.81;9.82
47709;PMS7003;33473;51.640;5.892;2023-05-10T00:55:15;12.85;14.72;9.06
47709;PMS7003;33473;51.640;5.892;2023-05-10T01:08:35;12.13;14.29;9.17
47709;PMS7003;33473;51.640;5.892;2023-05-10T01:21:55;16.21;16.47;10.47
47709;PMS7003;33473;51.640;5.892;2023-05-10T01:35:14;15.13;16.69;9.82
47709;PMS7003;33473;51.640;5.892;2023-05-10T01:48:34;18.37;18.54;11.13
47709;PMS7003;33473;51.640;5.892;2023-05-10T02:01:54;18.97;18.54;11.56
47709;PMS7003;33473;51.640;5.892;2023-05-10T02:15:14;20.53;19.74;11.89
47709;PMS7003;33473;51.640;5.892;2023-05-10T02:28:33;25.57;21.81;13.42
47709;PMS7003;33473;51.640;5.892;2023-05-10T02:41:53;29.05;24.21;14.18
47709;PMS7003;33473;51.640;5.892;2023-05-10T02:55:13;30.01;25.52;14.72
47709;PMS7003;33473;51.640;5.892;2023-05-10T03:08:33;33.01;26.71;15.05
47709;PMS7003;33473;51.640;5.892;2023-05-10T03:21:52;30.49;26.17;15.27
47709;PMS7003;33473;51.640;5.892;2023-05-10T03:35:12;30.61;25.73;14.83
47709;PMS7003;33473;51.640;5.892;2023-05-10T03:48:32;31.57;26.71;15.71
47709;PMS7003;33473;51.640;5.892;2023-05-10T04:01:52;32.17;26.82;15.71
47709;PMS7003;33473;51.640;5.892;2023-05-10T04:15:11;30.73;26.17;15.49
47709;PMS7003;33473;51.640;5.892;2023-05-10T04:28:31;32.17;26.82;15.81
47709;PMS7003;33473;51.640;5.892;2023-05-10T04:41:51;32.29;27.37;16.36
47709;PMS7003;33473;51.640;5.892;2023-05-10T04:55:10;34.46;28.46;16.58
47709;PMS7003;33473;51.640;5.892;2023-05-10T05:08:30;33.25;27.59;16.03
47709;PMS7003;33473;51.640;5.892;2023-05-10T05:21:50;31.33;26.28;15.6
47709;PMS7003;33473;51.640;5.892;2023-05-10T05:35:09;29.53;25.19;14.29
47709;PMS7003;33473;51.640;5.892;2023-05-10T05:48:29;29.53;24.64;14.29
47709;PMS7003;33473;51.640;5.892;2023-05-10T06:01:49;28.21;23.99;13.63
47709;PMS7003;33473;51.640;5.892;2023-05-10T06:15:09;27.85;23.77;13.53
47709;PMS7003;33473;51.640;5.892;2023-05-10T06:28:28;26.29;23.34;13.53
47709;PMS7003;33473;51.640;5.892;2023-05-10T06:41:48;29.29;24.43;14.18
47709;PMS7003;33473;51.640;5.892;2023-05-10T06:55:08;26.53;22.57;13.42
47709;PMS7003;33473;51.640;5.892;2023-05-10T07:08:28;24.85;21.92;13.31
47709;PMS7003;33473;51.640;5.892;2023-05-10T07:21:47;25.21;22.57;13.09
47709;PMS7003;33473;51.640;5.892;2023-05-10T07:35:07;24.61;22.03;13.09
47709;PMS7003;33473;51.640;5.892;2023-05-10T07:48:27;23.65;21.48;12.76
47709;PMS7003;33473;51.640;5.892;2023-05-10T08:01:46;24.13;21.37;13.09
47709;PMS7003;33473;51.640;5.892;2023-05-10T08:15:06;25.57;22.9;13.63
47709;PMS7003;33473;51.640;5.892;2023-05-10T08:28:26;25.33;22.57;13.63
47709;PMS7003;33473;51.640;5.892;2023-05-10T08:41:46;25.45;22.35;13.85
47709;PMS7003;33473;51.640;5.892;2023-05-10T08:55:05;26.05;22.68;14.18
47709;PMS7003;33473;51.640;5.892;2023-05-10T09:08:25;26.89;23.44;14.29
47709;PMS7003;33473;51.640;5.892;2023-05-10T09:21:45;26.29;22.9;14.51
47709;PMS7003;33473;51.640;5.892;2023-05-10T09:35:04;26.17;23.34;14.62
47709;PMS7003;33473;51.640;5.892;2023-05-10T09:48:24;24.73;21.81;13.74
47709;PMS7003;33473;51.640;5.892;2023-05-10T10:01:44;24.01;21.59;13.42
47709;PMS7003;33473;51.640;5.892;2023-05-10T10:15:04;22.33;20.39;13.31
47709;PMS7003;33473;51.640;5.892;2023-05-10T10:28:23;18.73;18.54;12.54
47709;PMS7003;33473;51.640;5.892;2023-05-10T10:41:43;19.09;18.43;12.54
47709;PMS7003;33473;51.640;5.892;2023-05-10T10:55:03;16.93;17.67;12.22
47709;PMS7003;33473;51.640;5.892;2023-05-10T11:08:22;13.33;15.16;10.69
47709;PMS7003;33473;51.640;5.892;2023-05-10T11:21:42;14.05;16.03;11.35
47709;PMS7003;33473;51.640;5.892;2023-05-10T11:35:02;14.65;15.16;10.58
47709;PMS7003;33473;51.640;5.892;2023-05-10T11:48:22;18.49;18.1;12.76
47709;PMS7003;33473;51.640;5.892;2023-05-10T12:01:41;15.61;16.8;11.24
47709;PMS7003;33473;51.640;5.892;2023-05-10T12:15:01;19.69;18.87;12.87
47709;PMS7003;33473;51.640;5.892;2023-05-10T12:28:21;15.13;16.58;11.13
47709;PMS7003;33473;51.640;5.892;2023-05-10T12:41:40;19.81;19.3;12.87
47709;PMS7003;33473;51.640;5.892;2023-05-10T12:55:00;17.77;18.21;12.54
47709;PMS7003;33473;51.640;5.892;2023-05-10T13:08:20;17.17;17.45;12.11
47709;PMS7003;33473;51.640;5.892;2023-05-10T13:21:39;16.57;17.45;12.11
47709;PMS7003;33473;51.640;5.892;2023-05-10T13:34:59;18.13;18.54;12.76
47709;PMS7003;33473;51.640;5.892;2023-05-10T13:48:19;18.25;18.54;12.87
47709;PMS7003;33473;51.640;5.892;2023-05-10T14:01:38;17.17;17.99;12.11
47709;PMS7003;33473;51.640;5.892;2023-05-10T14:14:58;14.41;16.14;11.45
47709;PMS7003;33473;51.640;5.892;2023-05-10T14:28:18;17.77;18.21;12.44
47709;PMS7003;33473;51.640;5.892;2023-05-10T14:41:38;14.41;16.03;10.69
47709;PMS7003;33473;51.640;5.892;2023-05-10T14:54:57;1.92;4.7;3.71
47709;PMS7003;33473;51.640;5.892;2023-05-10T15:08:17;2.52;5.57;4.15
47709;PMS7003;33473;51.640;5.892;2023-05-10T15:21:37;6.01;8.18;6.11
47709;PMS7003;33473;51.640;5.892;2023-05-10T15:34:56;6.61;9.27;6.88
47709;PMS7003;33473;51.640;5.892;2023-05-10T15:48:16;9.73;11.78;8.62
47709;PMS7003;33473;51.640;5.892;2023-05-10T16:01:36;11.41;13.63;10.15
47709;PMS7003;33473;51.640;5.892;2023-05-10T16:14:55;14.29;16.14;11.56
47709;PMS7003;33473;51.640;5.892;2023-05-10T16:28:15;16.93;17.78;12.54
47709;PMS7003;33473;51.640;5.892;2023-05-10T16:41:35;17.29;17.99;12.76
47709;PMS7003;33473;51.640;5.892;2023-05-10T16:54:55;17.41;18.1;12.87
47709;PMS7003;33473;51.640;5.892;2023-05-10T17:08:14;19.45;19.19;13.2
47709;PMS7003;33473;51.640;5.892;2023-05-10T17:21:34;19.93;19.41;13.31
47709;PMS7003;33473;51.640;5.892;2023-05-10T17:34:54;18.49;17.89;12.54
47709;PMS7003;33473;51.640;5.892;2023-05-10T17:48:13;19.09;18.76;12.98
47709;PMS7003;33473;51.640;5.892;2023-05-10T18:01:33;18.61;18.76;13.09
47709;PMS7003;33473;51.640;5.892;2023-05-10T18:14:53;19.45;19.19;13.09
47709;PMS7003;33473;51.640;5.892;2023-05-10T18:28:12;21.97;20.5;14.4
47709;PMS7003;33473;51.640;5.892;2023-05-10T18:41:32;23.17;21.26;14.83
47709;PMS7003;33473;51.640;5.892;2023-05-10T18:54:52;22.93;21.16;14.62
47709;PMS7003;33473;51.640;5.892;2023-05-10T19:08:11;24.85;22.46;15.6
47709;PMS7003;33473;51.640;5.892;2023-05-10T19:21:31;24.13;21.92;15.16
47709;PMS7003;33473;51.640;5.892;2023-05-10T19:34:51;20.77;19.96;13.63
47709;PMS7003;33473;51.640;5.892;2023-05-10T19:48:10;16.57;17.56;12.33
47709;PMS7003;33473;51.640;5.892;2023-05-10T20:01:30;16.09;17.34;12.0
47709;PMS7003;33473;51.640;5.892;2023-05-10T20:14:50;14.89;16.58;11.56
47709;PMS7003;33473;51.640;5.892;2023-05-10T20:28:09;17.29;17.45;11.67
47709;PMS7003;33473;51.640;5.892;2023-05-10T20:41:29;17.65;17.78;12.22
47709;PMS7003;33473;51.640;5.892;2023-05-10T20:54:49;17.53;18.1;12.0
47709;PMS7003;33473;51.640;5.892;2023-05-10T21:08:08;18.61;18.54;12.33
47709;PMS7003;33473;51.640;5.892;2023-05-10T21:21:28;18.25;18.65;12.76
47709;PMS7003;33473;51.640;5.892;2023-05-10T21:34:48;19.33;19.19;13.2
47709;PMS7003;33473;51.640;5.892;2023-05-10T21:48:08;18.85;18.98;12.54
47709;PMS7003;33473;51.640;5.892;2023-05-10T22:01:27;20.53;19.85;13.53
47709;PMS7003;33473;51.640;5.892;2023-05-10T22:14:47;19.93;19.52;13.42
47709;PMS7003;33473;51.640;5.892;2023-05-10T22:28:07;22.21;20.5;13.63
47709;PMS7003;33473;51.640;5.892;2023-05-10T22:41:26;22.45;20.72;13.96
47709;PMS7003;33473;51.640;5.892;2023-05-10T22:54:46;22.33;20.83;13.85
47709;PMS7003;33473;51.640;5.892;2023-05-10T23:08:06;23.17;21.26;14.29
47709;PMS7003;33473;51.640;5.892;2023-05-10T23:21:26;24.13;21.92;14.29
47709;PMS7003;33473;51.640;5.892;2023-05-10T23:34:45;24.85;22.14;14.51
47709;PMS7003;33473;51.640;5.892;2023-05-10T23:48:05;24.01;21.48;14.4
